sensor_id;sensor_type;location;lat;lon;timestamp;P1;durP1;ratioP1;P2;durP2;ratioP2
64816;SDS011;69411;45.656;11.740;2023-04-15T00:01:27;8.50;;;5.38;;
64816;SDS011;69411;45.656;11.740;2023-04-15T00:03:54;7.40;;;4.75;;
64816;SDS011;69411;45.656;11.740;2023-04-15T00:06:21;7.43;;;4.63;;
64816;SDS011;69411;45.656;11.740;2023-04-15T00:08:47;7.78;;;4.50;;
64816;SDS011;69411;45.656;11.740;2023-04-15T00:11:15;8.75;;;4.38;;
64816;SDS011;69411;45.656;11.740;2023-04-15T00:13:41;7.65;;;4.40;;
64816;SDS011;69411;45.656;11.740;2023-04-15T00:16:08;7.45;;;4.53;;
64816;SDS011;69411;45.656;11.740;2023-04-15T00:18:35;6.70;;;4.30;;
64816;SDS011;69411;45.656;11.740;2023-04-15T00:21:02;6.60;;;4.35;;
64816;SDS011;69411;45.656;11.740;2023-04-15T00:23:29;7.47;;;4.40;;
64816;SDS011;69411;45.656;11.740;2023-04-15T00:25:55;8.35;;;4.00;;
64816;SDS011;69411;45.656;11.740;2023-04-15T00:28:21;6.55;;;3.97;;
64816;SDS011;69411;45.656;11.740;2023-04-15T00:30:48;6.13;;;3.50;;
64816;SDS011;69411;45.656;11.740;2023-04-15T00:33:14;8.63;;;4.28;;
64816;SDS011;69411;45.656;11.740;2023-04-15T00:35:40;6.35;;;3.65;;
64816;SDS011;69411;45.656;11.740;2023-04-15T00:38:06;6.22;;;4.20;;
64816;SDS011;69411;45.656;11.740;2023-04-15T00:40:32;5.88;;;3.58;;
64816;SDS011;69411;45.656;11.740;2023-04-15T00:42:59;7.55;;;4.78;;
64816;SDS011;69411;45.656;11.740;2023-04-15T00:45:25;6.05;;;4.28;;
64816;SDS011;69411;45.656;11.740;2023-04-15T00:47:52;7.75;;;4.28;;
64816;SDS011;69411;45.656;11.740;2023-04-15T00:50:18;9.10;;;4.20;;
64816;SDS011;69411;45.656;11.740;2023-04-15T00:52:44;6.18;;;3.92;;
64816;SDS011;69411;45.656;11.740;2023-04-15T00:55:10;5.95;;;3.92;;
64816;SDS011;69411;45.656;11.740;2023-04-15T00:57:37;6.25;;;3.85;;
64816;SDS011;69411;45.656;11.740;2023-04-15T01:00:04;7.00;;;4.05;;
64816;SDS011;69411;45.656;11.740;2023-04-15T01:02:32;7.00;;;4.15;;
64816;SDS011;69411;45.656;11.740;2023-04-15T01:04:59;6.20;;;4.22;;
64816;SDS011;69411;45.656;11.740;2023-04-15T01:07:25;6.35;;;4.28;;
64816;SDS011;69411;45.656;11.740;2023-04-15T01:09:52;8.82;;;4.70;;
64816;SDS011;69411;45.656;11.740;2023-04-15T01:12:18;6.82;;;4.40;;
64816;SDS011;69411;45.656;11.740;2023-04-15T01:14:44;7.00;;;4.22;;
64816;SDS011;69411;45.656;11.740;2023-04-15T01:17:10;7.93;;;4.57;;
64816;SDS011;69411;45.656;11.740;2023-04-15T01:19:37;7.78;;;4.47;;
64816;SDS011;69411;45.656;11.740;2023-04-15T01:22:04;7.45;;;4.60;;
64816;SDS011;69411;45.656;11.740;2023-04-15T01:24:33;8.77;;;4.82;;
64816;SDS011;69411;45.656;11.740;2023-04-15T01:27:01;9.55;;;5.40;;
64816;SDS011;69411;45.656;11.740;2023-04-15T01:29:30;9.32;;;4.93;;
64816;SDS011;69411;45.656;11.740;2023-04-15T01:31:57;8.57;;;4.75;;
64816;SDS011;69411;45.656;11.740;2023-04-15T01:36:51;8.35;;;4.72;;
64816;SDS011;69411;45.656;11.740;2023-04-15T01:39:17;8.65;;;5.28;;
64816;SDS011;69411;45.656;11.740;2023-04-15T01:41:43;6.38;;;4.38;;
64816;SDS011;69411;45.656;11.740;2023-04-15T01:44:09;7.95;;;4.65;;
64816;SDS011;69411;45.656;11.740;2023-04-15T01:46:36;6.45;;;4.38;;
64816;SDS011;69411;45.656;11.740;2023-04-15T01:49:01;8.23;;;4.43;;
64816;SDS011;69411;45.656;11.740;2023-04-15T01:51:27;7.53;;;4.40;;
64816;SDS011;69411;45.656;11.740;2023-04-15T01:53:53;6.30;;;4.13;;
64816;SDS011;69411;45.656;11.740;2023-04-15T01:56:21;7.45;;;4.63;;
64816;SDS011;69411;45.656;11.740;2023-04-15T01:58:48;8.82;;;5.03;;
64816;SDS011;69411;45.656;11.740;2023-04-15T02:01:14;7.45;;;4.50;;
64816;SDS011;69411;45.656;11.740;2023-04-15T02:03:41;6.80;;;4.32;;
64816;SDS011;69411;45.656;11.740;2023-04-15T02:06:06;8.77;;;4.57;;
64816;SDS011;69411;45.656;11.740;2023-04-15T02:08:32;6.70;;;4.32;;
64816;SDS011;69411;45.656;11.740;2023-04-15T02:10:58;6.45;;;3.97;;
64816;SDS011;69411;45.656;11.740;2023-04-15T02:13:25;6.05;;;3.88;;
64816;SDS011;69411;45.656;11.740;2023-04-15T02:15:51;6.47;;;3.97;;
64816;SDS011;69411;45.656;11.740;2023-04-15T02:18:19;6.78;;;3.90;;
64816;SDS011;69411;45.656;11.740;2023-04-15T02:20:44;7.30;;;3.83;;
64816;SDS011;69411;45.656;11.740;2023-04-15T02:23:11;4.97;;;3.50;;
64816;SDS011;69411;45.656;11.740;2023-04-15T02:25:37;5.88;;;3.60;;
64816;SDS011;69411;45.656;11.740;2023-04-15T02:28:04;7.43;;;3.53;;
64816;SDS011;69411;45.656;11.740;2023-04-15T02:30:30;6.35;;;3.78;;
64816;SDS011;69411;45.656;11.740;2023-04-15T02:32:57;5.32;;;3.78;;
64816;SDS011;69411;45.656;11.740;2023-04-15T02:35:24;7.45;;;3.67;;
64816;SDS011;69411;45.656;11.740;2023-04-15T02:37:50;7.78;;;4.18;;
64816;SDS011;69411;45.656;11.740;2023-04-15T02:40:16;7.40;;;3.15;;
64816;SDS011;69411;45.656;11.740;2023-04-15T02:42:43;5.53;;;3.13;;
64816;SDS011;69411;45.656;11.740;2023-04-15T02:45:09;7.47;;;3.47;;
64816;SDS011;69411;45.656;11.740;2023-04-15T02:47:36;5.20;;;3.22;;
64816;SDS011;69411;45.656;11.740;2023-04-15T02:50:05;5.25;;;3.63;;
64816;SDS011;69411;45.656;11.740;2023-04-15T02:52:38;5.85;;;3.50;;
64816;SDS011;69411;45.656;11.740;2023-04-15T02:55:05;7.25;;;3.70;;
64816;SDS011;69411;45.656;11.740;2023-04-15T02:57:32;5.72;;;3.33;;
64816;SDS011;69411;45.656;11.740;2023-04-15T03:00:00;5.15;;;2.60;;
64816;SDS011;69411;45.656;11.740;2023-04-15T03:02:26;6.10;;;3.67;;
64816;SDS011;69411;45.656;11.740;2023-04-15T03:04:53;4.57;;;3.17;;
64816;SDS011;69411;45.656;11.740;2023-04-15T03:07:19;8.35;;;3.58;;
64816;SDS011;69411;45.656;11.740;2023-04-15T03:09:45;6.22;;;3.35;;
64816;SDS011;69411;45.656;11.740;2023-04-15T03:12:11;5.38;;;3.60;;
64816;SDS011;69411;45.656;11.740;2023-04-15T03:14:37;6.35;;;3.63;;
64816;SDS011;69411;45.656;11.740;2023-04-15T03:17:03;6.20;;;3.70;;
64816;SDS011;69411;45.656;11.740;2023-04-15T03:19:29;8.35;;;3.50;;
64816;SDS011;69411;45.656;11.740;2023-04-15T03:21:55;6.97;;;3.47;;
64816;SDS011;69411;45.656;11.740;2023-04-15T03:24:22;5.65;;;3.45;;
64816;SDS011;69411;45.656;11.740;2023-04-15T03:26:48;4.60;;;3.20;;
64816;SDS011;69411;45.656;11.740;2023-04-15T03:29:14;6.13;;;3.72;;
64816;SDS011;69411;45.656;11.740;2023-04-15T03:31:41;4.85;;;3.55;;
64816;SDS011;69411;45.656;11.740;2023-04-15T03:34:06;5.95;;;3.70;;
64816;SDS011;69411;45.656;11.740;2023-04-15T03:36:32;7.90;;;3.85;;
64816;SDS011;69411;45.656;11.740;2023-04-15T03:38:58;6.05;;;3.75;;
64816;SDS011;69411;45.656;11.740;2023-04-15T03:41:26;6.18;;;3.55;;
64816;SDS011;69411;45.656;11.740;2023-04-15T03:43:53;6.63;;;3.40;;
64816;SDS011;69411;45.656;11.740;2023-04-15T03:46:19;6.68;;;3.60;;
64816;SDS011;69411;45.656;11.740;2023-04-15T03:48:45;4.78;;;3.17;;
64816;SDS011;69411;45.656;11.740;2023-04-15T03:51:12;4.47;;;3.00;;
64816;SDS011;69411;45.656;11.740;2023-04-15T03:53:38;8.88;;;3.33;;
64816;SDS011;69411;45.656;11.740;2023-04-15T03:56:04;5.28;;;3.10;;
64816;SDS011;69411;45.656;11.740;2023-04-15T03:58:30;6.45;;;3.72;;
64816;SDS011;69411;45.656;11.740;2023-04-15T04:00:56;5.63;;;3.38;;
64816;SDS011;69411;45.656;11.740;2023-04-15T04:03:22;5.50;;;3.40;;
64816;SDS011;69411;45.656;11.740;2023-04-15T04:05:48;6.40;;;4.07;;
64816;SDS011;69411;45.656;11.740;2023-04-15T04:08:14;7.70;;;4.47;;
64816;SDS011;69411;45.656;11.740;2023-04-15T04:10:40;9.30;;;4.18;;
64816;SDS011;69411;45.656;11.740;2023-04-15T04:13:06;7.38;;;4.40;;
64816;SDS011;69411;45.656;11.740;2023-04-15T04:15:32;7.22;;;4.32;;
64816;SDS011;69411;45.656;11.740;2023-04-15T04:17:58;8.05;;;4.70;;
64816;SDS011;69411;45.656;11.740;2023-04-15T04:20:24;8.23;;;4.45;;
64816;SDS011;69411;45.656;11.740;2023-04-15T04:22:51;9.73;;;4.30;;
64816;SDS011;69411;45.656;11.740;2023-04-15T04:25:16;7.88;;;4.28;;
64816;SDS011;69411;45.656;11.740;2023-04-15T04:27:42;9.00;;;5.00;;
64816;SDS011;69411;45.656;11.740;2023-04-15T04:30:09;7.13;;;4.22;;
64816;SDS011;69411;45.656;11.740;2023-04-15T04:32:35;5.55;;;3.50;;
64816;SDS011;69411;45.656;11.740;2023-04-15T04:35:02;8.40;;;4.03;;
64816;SDS011;69411;45.656;11.740;2023-04-15T04:37:28;4.97;;;3.40;;
64816;SDS011;69411;45.656;11.740;2023-04-15T04:39:54;5.85;;;3.67;;
64816;SDS011;69411;45.656;11.740;2023-04-15T04:42:20;7.00;;;4.00;;
64816;SDS011;69411;45.656;11.740;2023-04-15T04:44:46;7.43;;;4.10;;
64816;SDS011;69411;45.656;11.740;2023-04-15T04:47:12;6.43;;;3.72;;
64816;SDS011;69411;45.656;11.740;2023-04-15T04:49:38;6.20;;;3.33;;
64816;SDS011;69411;45.656;11.740;2023-04-15T04:52:05;4.70;;;3.38;;
64816;SDS011;69411;45.656;11.740;2023-04-15T04:54:31;8.35;;;3.42;;
64816;SDS011;69411;45.656;11.740;2023-04-15T04:56:57;5.65;;;3.50;;
64816;SDS011;69411;45.656;11.740;2023-04-15T04:59:23;4.63;;;3.13;;
64816;SDS011;69411;45.656;11.740;2023-04-15T05:01:49;5.43;;;3.20;;
64816;SDS011;69411;45.656;11.740;2023-04-15T05:04:16;5.05;;;3.45;;
64816;SDS011;69411;45.656;11.740;2023-04-15T05:06:42;4.90;;;3.10;;
64816;SDS011;69411;45.656;11.740;2023-04-15T05:09:07;4.38;;;3.00;;
64816;SDS011;69411;45.656;11.740;2023-04-15T05:11:33;5.18;;;3.22;;
64816;SDS011;69411;45.656;11.740;2023-04-15T05:14:00;3.95;;;2.80;;
64816;SDS011;69411;45.656;11.740;2023-04-15T05:16:26;4.28;;;2.60;;
64816;SDS011;69411;45.656;11.740;2023-04-15T05:18:52;5.60;;;2.75;;
64816;SDS011;69411;45.656;11.740;2023-04-15T05:21:18;3.60;;;2.45;;
64816;SDS011;69411;45.656;11.740;2023-04-15T05:23:44;3.55;;;2.42;;
64816;SDS011;69411;45.656;11.740;2023-04-15T05:26:11;4.30;;;2.70;;
64816;SDS011;69411;45.656;11.740;2023-04-15T05:28:37;4.50;;;2.67;;
64816;SDS011;69411;45.656;11.740;2023-04-15T05:31:03;4.78;;;2.92;;
64816;SDS011;69411;45.656;11.740;2023-04-15T05:33:29;3.67;;;2.55;;
64816;SDS011;69411;45.656;11.740;2023-04-15T05:35:54;4.35;;;2.78;;
64816;SDS011;69411;45.656;11.740;2023-04-15T05:38:21;4.60;;;3.20;;
64816;SDS011;69411;45.656;11.740;2023-04-15T05:40:47;5.43;;;3.08;;
64816;SDS011;69411;45.656;11.740;2023-04-15T05:43:12;4.75;;;3.10;;
64816;SDS011;69411;45.656;11.740;2023-04-15T05:45:38;6.40;;;3.65;;
64816;SDS011;69411;45.656;11.740;2023-04-15T05:48:04;6.88;;;3.83;;
64816;SDS011;69411;45.656;11.740;2023-04-15T05:50:30;5.90;;;3.63;;
64816;SDS011;69411;45.656;11.740;2023-04-15T05:52:56;9.70;;;4.47;;
64816;SDS011;69411;45.656;11.740;2023-04-15T05:55:22;5.93;;;3.90;;
64816;SDS011;69411;45.656;11.740;2023-04-15T05:57:48;7.78;;;4.50;;
64816;SDS011;69411;45.656;11.740;2023-04-15T06:00:14;6.45;;;3.97;;
64816;SDS011;69411;45.656;11.740;2023-04-15T06:02:40;7.65;;;3.95;;
64816;SDS011;69411;45.656;11.740;2023-04-15T06:05:07;6.75;;;4.22;;
64816;SDS011;69411;45.656;11.740;2023-04-15T06:07:34;8.32;;;4.70;;
64816;SDS011;69411;45.656;11.740;2023-04-15T06:10:01;6.80;;;4.47;;
64816;SDS011;69411;45.656;11.740;2023-04-15T06:12:28;6.85;;;3.97;;
64816;SDS011;69411;45.656;11.740;2023-04-15T06:14:53;15.75;;;4.65;;
64816;SDS011;69411;45.656;11.740;2023-04-15T06:17:19;11.80;;;4.40;;
64816;SDS011;69411;45.656;11.740;2023-04-15T06:19:45;9.70;;;4.93;;
64816;SDS011;69411;45.656;11.740;2023-04-15T06:22:11;10.27;;;5.05;;
64816;SDS011;69411;45.656;11.740;2023-04-15T06:24:37;11.15;;;4.63;;
64816;SDS011;69411;45.656;11.740;2023-04-15T06:27:03;7.72;;;4.75;;
64816;SDS011;69411;45.656;11.740;2023-04-15T06:29:29;8.68;;;5.05;;
64816;SDS011;69411;45.656;11.740;2023-04-15T06:31:55;8.13;;;4.85;;
64816;SDS011;69411;45.656;11.740;2023-04-15T06:34:21;8.23;;;5.30;;
64816;SDS011;69411;45.656;11.740;2023-04-15T06:36:47;11.70;;;6.03;;
64816;SDS011;69411;45.656;11.740;2023-04-15T06:39:13;9.35;;;5.45;;
64816;SDS011;69411;45.656;11.740;2023-04-15T06:41:38;9.52;;;5.78;;
64816;SDS011;69411;45.656;11.740;2023-04-15T06:44:04;10.63;;;5.75;;
64816;SDS011;69411;45.656;11.740;2023-04-15T06:46:31;10.07;;;5.90;;
64816;SDS011;69411;45.656;11.740;2023-04-15T06:48:56;11.27;;;6.57;;
64816;SDS011;69411;45.656;11.740;2023-04-15T06:51:22;11.45;;;6.80;;
64816;SDS011;69411;45.656;11.740;2023-04-15T06:53:48;10.35;;;6.63;;
64816;SDS011;69411;45.656;11.740;2023-04-15T06:56:14;9.50;;;6.25;;
64816;SDS011;69411;45.656;11.740;2023-04-15T06:58:40;13.30;;;6.47;;
64816;SDS011;69411;45.656;11.740;2023-04-15T07:01:06;12.45;;;6.30;;
64816;SDS011;69411;45.656;11.740;2023-04-15T07:03:32;12.85;;;6.47;;
64816;SDS011;69411;45.656;11.740;2023-04-15T07:05:58;10.88;;;6.03;;
64816;SDS011;69411;45.656;11.740;2023-04-15T07:08:25;10.32;;;5.55;;
64816;SDS011;69411;45.656;11.740;2023-04-15T07:10:51;11.25;;;5.38;;
64816;SDS011;69411;45.656;11.740;2023-04-15T07:13:18;10.43;;;5.57;;
64816;SDS011;69411;45.656;11.740;2023-04-15T07:15:44;8.60;;;5.68;;
64816;SDS011;69411;45.656;11.740;2023-04-15T07:18:10;10.07;;;5.85;;
64816;SDS011;69411;45.656;11.740;2023-04-15T07:20:35;10.82;;;5.57;;
64816;SDS011;69411;45.656;11.740;2023-04-15T07:23:02;8.77;;;5.35;;
64816;SDS011;69411;45.656;11.740;2023-04-15T07:25:28;10.20;;;5.30;;
64816;SDS011;69411;45.656;11.740;2023-04-15T07:27:54;7.78;;;5.22;;
64816;SDS011;69411;45.656;11.740;2023-04-15T07:30:20;9.25;;;5.25;;
64816;SDS011;69411;45.656;11.740;2023-04-15T07:32:46;9.18;;;5.35;;
64816;SDS011;69411;45.656;11.740;2023-04-15T07:35:12;7.68;;;4.88;;
64816;SDS011;69411;45.656;11.740;2023-04-15T07:37:38;7.68;;;5.13;;
64816;SDS011;69411;45.656;11.740;2023-04-15T07:40:04;8.13;;;5.25;;
64816;SDS011;69411;45.656;11.740;2023-04-15T07:42:32;10.27;;;5.18;;
64816;SDS011;69411;45.656;11.740;2023-04-15T07:44:58;9.20;;;5.60;;
64816;SDS011;69411;45.656;11.740;2023-04-15T07:47:24;8.60;;;5.40;;
64816;SDS011;69411;45.656;11.740;2023-04-15T07:49:51;6.07;;;4.47;;
64816;SDS011;69411;45.656;11.740;2023-04-15T07:52:17;8.15;;;4.53;;
64816;SDS011;69411;45.656;11.740;2023-04-15T07:54:43;8.60;;;4.40;;
64816;SDS011;69411;45.656;11.740;2023-04-15T07:57:09;7.47;;;4.72;;
64816;SDS011;69411;45.656;11.740;2023-04-15T07:59:36;6.00;;;4.00;;
64816;SDS011;69411;45.656;11.740;2023-04-15T08:02:01;8.13;;;4.43;;
64816;SDS011;69411;45.656;11.740;2023-04-15T08:04:28;7.32;;;4.70;;
64816;SDS011;69411;45.656;11.740;2023-04-15T08:06:54;7.28;;;4.70;;
64816;SDS011;69411;45.656;11.740;2023-04-15T08:09:19;7.68;;;4.80;;
64816;SDS011;69411;45.656;11.740;2023-04-15T08:11:47;7.50;;;4.75;;
64816;SDS011;69411;45.656;11.740;2023-04-15T08:14:15;8.73;;;4.57;;
64816;SDS011;69411;45.656;11.740;2023-04-15T08:16:41;5.18;;;3.75;;
64816;SDS011;69411;45.656;11.740;2023-04-15T08:19:06;6.53;;;4.10;;
64816;SDS011;69411;45.656;11.740;2023-04-15T08:21:32;8.75;;;4.60;;
64816;SDS011;69411;45.656;11.740;2023-04-15T08:23:58;7.75;;;4.50;;
64816;SDS011;69411;45.656;11.740;2023-04-15T08:26:25;8.45;;;4.53;;
64816;SDS011;69411;45.656;11.740;2023-04-15T08:28:51;7.20;;;4.80;;
64816;SDS011;69411;45.656;11.740;2023-04-15T08:31:17;7.55;;;4.93;;
64816;SDS011;69411;45.656;11.740;2023-04-15T08:33:44;7.38;;;4.70;;
64816;SDS011;69411;45.656;11.740;2023-04-15T08:36:10;8.23;;;5.07;;
64816;SDS011;69411;45.656;11.740;2023-04-15T08:38:37;5.53;;;3.90;;
64816;SDS011;69411;45.656;11.740;2023-04-15T08:41:08;6.80;;;4.18;;
64816;SDS011;69411;45.656;11.740;2023-04-15T08:43:44;10.05;;;5.38;;
64816;SDS011;69411;45.656;11.740;2023-04-15T08:46:15;7.70;;;4.80;;
64816;SDS011;69411;45.656;11.740;2023-04-15T08:48:42;9.70;;;5.00;;
64816;SDS011;69411;45.656;11.740;2023-04-15T08:51:11;7.25;;;4.18;;
64816;SDS011;69411;45.656;11.740;2023-04-15T08:53:40;6.38;;;4.15;;
64816;SDS011;69411;45.656;11.740;2023-04-15T08:56:07;7.60;;;4.90;;
64816;SDS011;69411;45.656;11.740;2023-04-15T08:58:35;6.10;;;3.85;;
64816;SDS011;69411;45.656;11.740;2023-04-15T09:01:02;5.20;;;3.80;;
64816;SDS011;69411;45.656;11.740;2023-04-15T09:03:28;8.05;;;4.30;;
64816;SDS011;69411;45.656;11.740;2023-04-15T09:05:54;10.27;;;4.35;;
64816;SDS011;69411;45.656;11.740;2023-04-15T09:08:22;7.63;;;4.15;;
64816;SDS011;69411;45.656;11.740;2023-04-15T09:10:48;5.45;;;3.78;;
64816;SDS011;69411;45.656;11.740;2023-04-15T09:13:14;6.00;;;4.25;;
64816;SDS011;69411;45.656;11.740;2023-04-15T09:15:40;7.90;;;4.30;;
64816;SDS011;69411;45.656;11.740;2023-04-15T09:18:06;6.97;;;4.10;;
64816;SDS011;69411;45.656;11.740;2023-04-15T09:20:38;8.02;;;4.35;;
64816;SDS011;69411;45.656;11.740;2023-04-15T09:23:14;6.32;;;4.05;;
64816;SDS011;69411;45.656;11.740;2023-04-15T09:28:07;10.95;;;4.78;;
64816;SDS011;69411;45.656;11.740;2023-04-15T09:30:34;7.13;;;4.30;;
64816;SDS011;69411;45.656;11.740;2023-04-15T09:33:01;6.88;;;4.28;;
64816;SDS011;69411;45.656;11.740;2023-04-15T09:35:35;6.63;;;4.72;;
64816;SDS011;69411;45.656;11.740;2023-04-15T09:38:02;9.23;;;4.65;;
64816;SDS011;69411;45.656;11.740;2023-04-15T09:40:31;6.55;;;4.72;;
64816;SDS011;69411;45.656;11.740;2023-04-15T09:42:58;9.32;;;5.18;;
64816;SDS011;69411;45.656;11.740;2023-04-15T09:45:24;8.15;;;4.60;;
64816;SDS011;69411;45.656;11.740;2023-04-15T09:47:50;4.95;;;3.92;;
64816;SDS011;69411;45.656;11.740;2023-04-15T09:50:17;8.75;;;4.35;;
64816;SDS011;69411;45.656;11.740;2023-04-15T09:52:44;7.00;;;4.50;;
64816;SDS011;69411;45.656;11.740;2023-04-15T09:55:11;5.70;;;3.80;;
64816;SDS011;69411;45.656;11.740;2023-04-15T09:57:40;6.32;;;4.40;;
64816;SDS011;69411;45.656;11.740;2023-04-15T10:00:07;9.73;;;4.40;;
64816;SDS011;69411;45.656;11.740;2023-04-15T10:02:38;5.93;;;4.03;;
64816;SDS011;69411;45.656;11.740;2023-04-15T10:05:13;6.45;;;4.15;;
64816;SDS011;69411;45.656;11.740;2023-04-15T10:07:39;9.05;;;4.15;;
64816;SDS011;69411;45.656;11.740;2023-04-15T10:10:07;6.97;;;4.10;;
64816;SDS011;69411;45.656;11.740;2023-04-15T10:12:35;6.38;;;4.70;;
64816;SDS011;69411;45.656;11.740;2023-04-15T10:15:03;6.25;;;3.50;;
64816;SDS011;69411;45.656;11.740;2023-04-15T10:17:29;4.10;;;3.25;;
64816;SDS011;69411;45.656;11.740;2023-04-15T10:20:00;6.05;;;3.28;;
64816;SDS011;69411;45.656;11.740;2023-04-15T10:22:27;5.13;;;3.78;;
64816;SDS011;69411;45.656;11.740;2023-04-15T10:24:54;6.93;;;3.80;;
64816;SDS011;69411;45.656;11.740;2023-04-15T10:27:21;6.28;;;4.00;;
64816;SDS011;69411;45.656;11.740;2023-04-15T10:29:49;8.60;;;4.13;;
64816;SDS011;69411;45.656;11.740;2023-04-15T10:32:17;4.38;;;3.63;;
64816;SDS011;69411;45.656;11.740;2023-04-15T10:34:45;9.18;;;4.32;;
64816;SDS011;69411;45.656;11.740;2023-04-15T10:37:18;4.80;;;4.13;;
64816;SDS011;69411;45.656;11.740;2023-04-15T10:39:45;8.40;;;4.63;;
64816;SDS011;69411;45.656;11.740;2023-04-15T10:42:15;6.90;;;4.70;;
64816;SDS011;69411;45.656;11.740;2023-04-15T10:44:44;12.98;;;5.90;;
64816;SDS011;69411;45.656;11.740;2023-04-15T10:47:14;6.22;;;4.25;;
64816;SDS011;69411;45.656;11.740;2023-04-15T10:49:45;5.07;;;3.47;;
64816;SDS011;69411;45.656;11.740;2023-04-15T10:52:12;5.07;;;3.80;;
64816;SDS011;69411;45.656;11.740;2023-04-15T10:54:39;6.45;;;3.50;;
64816;SDS011;69411;45.656;11.740;2023-04-15T10:57:06;5.10;;;3.40;;
64816;SDS011;69411;45.656;11.740;2023-04-15T11:08:10;5.00;;;3.40;;
64816;SDS011;69411;45.656;11.740;2023-04-15T11:15:36;6.43;;;3.60;;
64816;SDS011;69411;45.656;11.740;2023-04-15T11:20:36;7.55;;;4.00;;
64816;SDS011;69411;45.656;11.740;2023-04-15T11:23:04;6.50;;;4.10;;
64816;SDS011;69411;45.656;11.740;2023-04-15T11:25:31;5.72;;;3.80;;
64816;SDS011;69411;45.656;11.740;2023-04-15T11:27:59;5.70;;;3.63;;
64816;SDS011;69411;45.656;11.740;2023-04-15T11:30:27;7.68;;;4.10;;
64816;SDS011;69411;45.656;11.740;2023-04-15T11:33:01;6.70;;;3.75;;
64816;SDS011;69411;45.656;11.740;2023-04-15T11:35:30;4.57;;;3.60;;
64816;SDS011;69411;45.656;11.740;2023-04-15T11:37:56;8.77;;;4.30;;
64816;SDS011;69411;45.656;11.740;2023-04-15T11:40:25;7.18;;;3.80;;
64816;SDS011;69411;45.656;11.740;2023-04-15T11:45:49;7.00;;;3.65;;
64816;SDS011;69411;45.656;11.740;2023-04-15T11:48:27;7.60;;;3.75;;
64816;SDS011;69411;45.656;11.740;2023-04-15T11:51:05;5.50;;;3.50;;
64816;SDS011;69411;45.656;11.740;2023-04-15T11:53:38;3.95;;;2.72;;
64816;SDS011;69411;45.656;11.740;2023-04-15T11:56:09;4.93;;;2.70;;
64816;SDS011;69411;45.656;11.740;2023-04-15T11:58:45;2.72;;;2.50;;
64816;SDS011;69411;45.656;11.740;2023-04-15T12:01:12;3.28;;;2.80;;
64816;SDS011;69411;45.656;11.740;2023-04-15T12:03:39;5.97;;;3.42;;
64816;SDS011;69411;45.656;11.740;2023-04-15T12:14:19;5.10;;;3.45;;
64816;SDS011;69411;45.656;11.740;2023-04-15T12:16:47;4.88;;;3.15;;
64816;SDS011;69411;45.656;11.740;2023-04-15T12:19:21;4.57;;;3.15;;
64816;SDS011;69411;45.656;11.740;2023-04-15T12:21:49;5.18;;;3.42;;
64816;SDS011;69411;45.656;11.740;2023-04-15T12:24:18;5.22;;;3.00;;
64816;SDS011;69411;45.656;11.740;2023-04-15T12:26:50;4.38;;;3.42;;
64816;SDS011;69411;45.656;11.740;2023-04-15T12:29:18;6.07;;;3.20;;
64816;SDS011;69411;45.656;11.740;2023-04-15T12:34:26;5.35;;;3.20;;
64816;SDS011;69411;45.656;11.740;2023-04-15T12:36:53;5.95;;;3.40;;
64816;SDS011;69411;45.656;11.740;2023-04-15T12:39:25;6.05;;;3.70;;
64816;SDS011;69411;45.656;11.740;2023-04-15T12:41:53;7.45;;;3.30;;
64816;SDS011;69411;45.656;11.740;2023-04-15T12:44:21;5.40;;;3.30;;
64816;SDS011;69411;45.656;11.740;2023-04-15T12:46:48;7.07;;;3.50;;
64816;SDS011;69411;45.656;11.740;2023-04-15T12:49:14;5.70;;;3.20;;
64816;SDS011;69411;45.656;11.740;2023-04-15T12:51:41;4.13;;;2.45;;
64816;SDS011;69411;45.656;11.740;2023-04-15T12:54:07;3.35;;;2.80;;
64816;SDS011;69411;45.656;11.740;2023-04-15T12:56:33;3.58;;;2.28;;
64816;SDS011;69411;45.656;11.740;2023-04-15T12:58:59;6.35;;;2.50;;
64816;SDS011;69411;45.656;11.740;2023-04-15T13:01:24;2.97;;;2.30;;
64816;SDS011;69411;45.656;11.740;2023-04-15T13:03:51;6.63;;;2.92;;
64816;SDS011;69411;45.656;11.740;2023-04-15T13:06:17;5.78;;;3.13;;
64816;SDS011;69411;45.656;11.740;2023-04-15T13:08:43;4.30;;;2.72;;
64816;SDS011;69411;45.656;11.740;2023-04-15T13:11:09;4.03;;;3.10;;
64816;SDS011;69411;45.656;11.740;2023-04-15T13:13:35;4.72;;;3.10;;
64816;SDS011;69411;45.656;11.740;2023-04-15T13:16:01;2.92;;;2.30;;
64816;SDS011;69411;45.656;11.740;2023-04-15T13:18:27;3.33;;;2.50;;
64816;SDS011;69411;45.656;11.740;2023-04-15T13:20:55;3.10;;;2.17;;
64816;SDS011;69411;45.656;11.740;2023-04-15T13:23:21;4.45;;;2.47;;
64816;SDS011;69411;45.656;11.740;2023-04-15T13:25:47;3.47;;;2.90;;
64816;SDS011;69411;45.656;11.740;2023-04-15T13:28:13;3.33;;;2.80;;
64816;SDS011;69411;45.656;11.740;2023-04-15T13:30:38;4.38;;;3.13;;
64816;SDS011;69411;45.656;11.740;2023-04-15T13:33:05;4.32;;;2.85;;
64816;SDS011;69411;45.656;11.740;2023-04-15T13:35:31;3.95;;;2.85;;
64816;SDS011;69411;45.656;11.740;2023-04-15T13:37:58;4.60;;;2.85;;
64816;SDS011;69411;45.656;11.740;2023-04-15T13:40:23;4.20;;;2.90;;
64816;SDS011;69411;45.656;11.740;2023-04-15T13:42:50;3.50;;;2.85;;
64816;SDS011;69411;45.656;11.740;2023-04-15T13:45:17;3.58;;;2.63;;
64816;SDS011;69411;45.656;11.740;2023-04-15T13:47:43;3.72;;;2.55;;
64816;SDS011;69411;45.656;11.740;2023-04-15T13:50:09;2.58;;;1.92;;
64816;SDS011;69411;45.656;11.740;2023-04-15T13:52:35;5.43;;;2.50;;
64816;SDS011;69411;45.656;11.740;2023-04-15T13:55:02;3.30;;;2.70;;
64816;SDS011;69411;45.656;11.740;2023-04-15T13:57:28;3.97;;;2.63;;
64816;SDS011;69411;45.656;11.740;2023-04-15T13:59:55;5.35;;;2.67;;
64816;SDS011;69411;45.656;11.740;2023-04-15T14:02:22;4.22;;;2.70;;
64816;SDS011;69411;45.656;11.740;2023-04-15T14:04:48;4.82;;;3.13;;
64816;SDS011;69411;45.656;11.740;2023-04-15T14:07:14;5.15;;;2.88;;
64816;SDS011;69411;45.656;11.740;2023-04-15T14:09:40;4.10;;;2.50;;
64816;SDS011;69411;45.656;11.740;2023-04-15T14:12:07;3.25;;;2.38;;
64816;SDS011;69411;45.656;11.740;2023-04-15T14:14:34;3.30;;;1.88;;
64816;SDS011;69411;45.656;11.740;2023-04-15T14:17:00;3.33;;;2.13;;
64816;SDS011;69411;45.656;11.740;2023-04-15T14:19:29;2.78;;;2.50;;
64816;SDS011;69411;45.656;11.740;2023-04-15T14:21:55;5.22;;;2.72;;
64816;SDS011;69411;45.656;11.740;2023-04-15T14:24:21;2.67;;;2.47;;
64816;SDS011;69411;45.656;11.740;2023-04-15T14:26:47;6.68;;;2.47;;
64816;SDS011;69411;45.656;11.740;2023-04-15T14:29:13;3.53;;;2.55;;
64816;SDS011;69411;45.656;11.740;2023-04-15T14:31:39;6.65;;;2.47;;
64816;SDS011;69411;45.656;11.740;2023-04-15T14:34:06;2.60;;;2.05;;
64816;SDS011;69411;45.656;11.740;2023-04-15T14:36:32;4.63;;;1.73;;
64816;SDS011;69411;45.656;11.740;2023-04-15T14:38:58;2.33;;;1.40;;
64816;SDS011;69411;45.656;11.740;2023-04-15T14:41:24;2.60;;;1.55;;
64816;SDS011;69411;45.656;11.740;2023-04-15T14:43:50;4.57;;;1.90;;
64816;SDS011;69411;45.656;11.740;2023-04-15T14:46:16;5.82;;;2.00;;
64816;SDS011;69411;45.656;11.740;2023-04-15T14:48:42;2.25;;;1.58;;
64816;SDS011;69411;45.656;11.740;2023-04-15T14:51:08;2.95;;;1.83;;
64816;SDS011;69411;45.656;11.740;2023-04-15T14:53:34;4.65;;;1.80;;
64816;SDS011;69411;45.656;11.740;2023-04-15T14:56:00;4.60;;;1.90;;
64816;SDS011;69411;45.656;11.740;2023-04-15T14:58:26;2.95;;;2.08;;
64816;SDS011;69411;45.656;11.740;2023-04-15T15:00:52;3.70;;;2.20;;
64816;SDS011;69411;45.656;11.740;2023-04-15T15:03:18;4.10;;;2.40;;
64816;SDS011;69411;45.656;11.740;2023-04-15T15:05:45;3.80;;;2.40;;